createdAt,value
2019-04-26T00:00:13.888Z,14.30
2019-04-26T00:00:52.667Z,14.30
2019-04-26T00:01:30.150Z,14.30
2019-04-26T00:02:22.852Z,14.30
2019-04-26T00:03:01.105Z,14.30
2019-04-26T00:03:41.240Z,14.30
2019-04-26T00:04:16.698Z,14.30
2019-04-26T00:04:51.767Z,14.20
2019-04-26T00:05:34.442Z,14.30
2019-04-26T00:06:06.532Z,14.30
2019-04-26T00:06:41.579Z,14.30
2019-04-26T00:07:16.730Z,14.30
2019-04-26T00:07:53.150Z,14.30
2019-04-26T00:08:28.354Z,14.20
2019-04-26T00:09:22.193Z,14.20
2019-04-26T00:09:58.599Z,14.20
2019-04-26T00:10:59.608Z,14.20
2019-04-26T00:11:51.383Z,14.10
2019-04-26T00:12:34.148Z,14.10
2019-04-26T00:13:21.555Z,14.10
2019-04-26T00:14:16.263Z,14.10
2019-04-26T00:15:06.814Z,14.10
2019-04-26T00:15:53.152Z,14.10
2019-04-26T00:16:40.381Z,14.10
2019-04-26T00:17:26.339Z,14.10
2019-04-26T00:18:01.753Z,14.10
2019-04-26T00:18:39.434Z,14.10
2019-04-26T00:19:14.088Z,14.20
2019-04-26T00:19:49.391Z,14.20
2019-04-26T00:20:24.807Z,14.20
2019-04-26T00:21:00.241Z,14.20
2019-04-26T00:21:35.363Z,14.20
2019-04-26T00:22:10.971Z,14.20
2019-04-26T00:22:47.238Z,14.20
2019-04-26T00:23:22.603Z,14.20
2019-04-26T00:23:58.083Z,14.20
2019-04-26T00:24:33.709Z,14.10
2019-04-26T00:25:08.830Z,14.20
2019-04-26T00:25:44.004Z,14.10
2019-04-26T00:26:19.686Z,14.10
2019-04-26T00:26:54.945Z,14.20
2019-04-26T00:27:30.071Z,14.20
2019-04-26T00:28:05.202Z,14.10
2019-04-26T00:28:41.758Z,14.10
2019-04-26T00:29:17.279Z,14.10
2019-04-26T00:29:52.400Z,14.10
2019-04-26T00:30:27.613Z,14.10
2019-04-26T00:31:02.735Z,14.10
2019-04-26T00:31:37.851Z,14.10
2019-04-26T00:32:13.223Z,14.10
2019-04-26T00:32:48.413Z,14.10
2019-04-26T00:33:23.591Z,14.10
2019-04-26T00:33:59.928Z,14.10
2019-04-26T00:34:35.125Z,14.10
2019-04-26T00:35:10.287Z,14.10
2019-04-26T00:35:47.630Z,14.10
2019-04-26T00:36:22.896Z,14.10
2019-04-26T00:36:58.075Z,14.10
2019-04-26T00:37:33.335Z,14.10
2019-04-26T00:38:08.465Z,14.10
2019-04-26T00:38:43.988Z,14.10
2019-04-26T00:39:20.245Z,14.10
2019-04-26T00:39:55.487Z,14.10
2019-04-26T00:40:30.870Z,14.10
2019-04-26T00:41:05.986Z,14.00
2019-04-26T00:41:41.114Z,14.00
2019-04-26T00:42:16.510Z,14.00
2019-04-26T00:42:53.112Z,14.10
2019-04-26T00:43:28.238Z,14.00
2019-04-26T00:44:03.780Z,14.00
2019-04-26T00:44:38.930Z,14.00
2019-04-26T00:45:15.006Z,14.00
2019-04-26T00:45:50.591Z,14.00
2019-04-26T00:46:26.259Z,14.00
2019-04-26T00:47:01.394Z,14.00
2019-04-26T00:47:36.739Z,14.00
2019-04-26T00:48:12.537Z,14.00
2019-04-26T00:48:48.832Z,14.00
2019-04-26T00:49:23.962Z,13.90
2019-04-26T00:49:59.338Z,13.90
2019-04-26T00:50:34.443Z,13.90
2019-04-26T00:51:09.561Z,13.90
2019-04-26T00:51:44.688Z,13.90
2019-04-26T00:52:19.886Z,13.90
2019-04-26T00:52:55.005Z,13.90
2019-04-26T00:53:30.444Z,13.90
2019-04-26T00:54:05.576Z,13.80
2019-04-26T00:54:41.657Z,13.80
2019-04-26T00:55:17.597Z,13.80
2019-04-26T00:55:53.273Z,13.80
2019-04-26T00:56:29.053Z,13.80
2019-04-26T00:57:04.626Z,13.80
2019-04-26T00:57:39.689Z,13.80
2019-04-26T00:58:15.366Z,13.80
2019-04-26T00:58:51.756Z,13.80
2019-04-26T00:59:27.290Z,13.80
2019-04-26T01:00:03.093Z,13.80
2019-04-26T01:00:39.314Z,13.80
2019-04-26T01:01:16.515Z,13.80
2019-04-26T01:01:56.303Z,13.80
2019-04-26T01:02:42.875Z,13.80
2019-04-26T01:03:18.621Z,13.80
2019-04-26T01:03:53.828Z,13.90
2019-04-26T01:04:28.908Z,13.80
2019-04-26T01:05:04.271Z,13.90
2019-04-26T01:05:39.893Z,13.90
2019-04-26T01:06:17.052Z,13.90
2019-04-26T01:06:53.502Z,13.90
2019-04-26T01:07:28.644Z,13.90
2019-04-26T01:08:03.722Z,13.90
2019-04-26T01:08:38.863Z,13.90
2019-04-26T01:09:15.922Z,13.90
2019-04-26T01:09:50.874Z,13.90
2019-04-26T01:10:26.014Z,13.90
2019-04-26T01:11:01.097Z,13.90
2019-04-26T01:11:36.182Z,13.90
2019-04-26T01:12:11.279Z,13.90
2019-04-26T01:12:46.363Z,13.90
2019-04-26T01:13:22.002Z,13.90
2019-04-26T01:13:57.153Z,13.90
2019-04-26T01:14:32.220Z,13.90
2019-04-26T01:15:07.736Z,13.90
2019-04-26T01:15:42.855Z,13.80
2019-04-26T01:16:18.343Z,13.80
2019-04-26T01:16:53.511Z,13.80
2019-04-26T01:17:28.674Z,13.80
2019-04-26T01:18:03.763Z,13.80
2019-04-26T01:18:38.863Z,13.90
2019-04-26T01:19:13.947Z,13.90
2019-04-26T01:19:49.034Z,13.90
2019-04-26T01:20:24.690Z,13.90
2019-04-26T01:21:00.151Z,13.90
2019-04-26T01:21:42.904Z,13.80
2019-04-26T01:22:23.364Z,13.80
2019-04-26T01:23:00.644Z,13.80
2019-04-26T01:23:36.444Z,13.80
2019-04-26T01:24:11.881Z,13.80
2019-04-26T01:24:46.942Z,13.90
2019-04-26T01:25:51.943Z,13.80
2019-04-26T01:26:29.883Z,13.90
2019-04-26T01:27:05.275Z,13.80
2019-04-26T01:27:40.421Z,13.80
2019-04-26T01:28:19.713Z,13.80
2019-04-26T01:28:58.942Z,13.90
2019-04-26T01:29:34.065Z,13.80
2019-04-26T01:30:10.217Z,13.80
2019-04-26T01:30:45.328Z,13.90
2019-04-26T01:31:20.417Z,13.90
2019-04-26T01:32:05.093Z,13.80
2019-04-26T01:32:40.883Z,13.90
2019-04-26T01:33:15.957Z,13.90
2019-04-26T01:34:01.369Z,13.90
2019-04-26T01:35:29.580Z,13.90
2019-04-26T01:36:12.798Z,13.90
2019-04-26T01:36:41.517Z,13.90
2019-04-26T01:37:16.695Z,13.90
2019-04-26T01:37:52.796Z,13.90
2019-04-26T01:38:27.957Z,13.90
2019-04-26T01:39:10.186Z,13.90
2019-04-26T01:39:51.074Z,13.90
2019-04-26T01:40:28.227Z,13.90
2019-04-26T01:41:07.776Z,13.90
2019-04-26T01:41:47.681Z,13.90
2019-04-26T01:42:38.429Z,13.90
2019-04-26T01:43:26.750Z,13.90
2019-04-26T01:44:20.204Z,13.90
2019-04-26T01:45:06.265Z,13.90
2019-04-26T01:45:48.236Z,13.80
2019-04-26T01:46:27.643Z,13.80
2019-04-26T01:47:03.034Z,13.80
2019-04-26T01:47:38.167Z,13.80
2019-04-26T01:48:37.468Z,13.80
2019-04-26T01:49:12.689Z,13.90
2019-04-26T01:49:47.837Z,13.80
2019-04-26T01:50:23.668Z,13.80
2019-04-26T01:50:58.754Z,13.80
2019-04-26T01:51:45.678Z,13.80
2019-04-26T01:52:22.393Z,13.80
2019-04-26T01:52:57.648Z,13.80
2019-04-26T01:53:33.063Z,13.80
2019-04-26T01:54:09.290Z,13.80
2019-04-26T01:54:44.628Z,13.80
2019-04-26T01:55:21.498Z,13.80
2019-04-26T01:55:56.481Z,13.80
2019-04-26T01:56:33.995Z,13.80
2019-04-26T01:57:09.139Z,13.80
2019-04-26T01:57:44.338Z,13.80
2019-04-26T01:58:19.427Z,13.80
2019-04-26T01:58:54.500Z,13.80
2019-04-26T01:59:29.633Z,13.80
2019-04-26T02:00:23.933Z,13.80
2019-04-26T02:01:07.817Z,13.80
2019-04-26T02:01:54.428Z,13.80
2019-04-26T02:02:51.082Z,13.80
2019-04-26T02:03:28.215Z,13.80
2019-04-26T02:04:03.284Z,13.80
2019-04-26T02:04:40.059Z,13.80
2019-04-26T02:05:18.964Z,13.80
2019-04-26T02:05:54.050Z,13.90
2019-04-26T02:06:33.364Z,13.90
2019-04-26T02:07:07.000Z,13.90
2019-04-26T02:07:42.100Z,13.80
2019-04-26T02:08:17.179Z,13.80
2019-04-26T02:08:52.274Z,13.80
2019-04-26T02:09:28.401Z,13.80
2019-04-26T02:10:03.651Z,13.80
2019-04-26T02:10:38.787Z,13.80
2019-04-26T02:11:13.908Z,13.80
2019-04-26T02:11:49.096Z,13.80
2019-04-26T02:12:24.868Z,13.80
2019-04-26T02:13:00.116Z,13.80
2019-04-26T02:13:35.236Z,13.80
2019-04-26T02:14:10.357Z,13.80
2019-04-26T02:14:45.485Z,13.80
2019-04-26T02:15:23.949Z,13.80
2019-04-26T02:15:58.682Z,13.80
2019-04-26T02:16:33.808Z,13.80
2019-04-26T02:17:08.925Z,13.80
2019-04-26T02:17:44.323Z,13.80
2019-04-26T02:18:19.471Z,13.80
2019-04-26T02:18:54.600Z,13.80
2019-04-26T02:19:30.301Z,13.80
2019-04-26T02:20:05.550Z,13.80
2019-04-26T02:21:18.030Z,13.80
2019-04-26T02:22:02.085Z,13.80
2019-04-26T02:22:45.599Z,13.80
2019-04-26T02:23:26.361Z,13.80
2019-04-26T02:24:05.898Z,13.80
2019-04-26T02:24:44.339Z,13.80
2019-04-26T02:25:20.516Z,13.80
2019-04-26T02:25:55.663Z,13.70
2019-04-26T02:26:41.818Z,13.80
2019-04-26T02:27:22.068Z,13.80
2019-04-26T02:27:57.197Z,13.80
2019-04-26T02:28:32.430Z,13.80
2019-04-26T02:29:10.720Z,13.80
2019-04-26T02:29:45.919Z,13.70
2019-04-26T02:30:21.129Z,13.80
2019-04-26T02:30:56.320Z,13.70
2019-04-26T02:31:33.238Z,13.80
2019-04-26T02:32:09.023Z,13.70
2019-04-26T02:32:44.492Z,13.70
2019-04-26T02:33:19.599Z,13.70
2019-04-26T02:33:55.690Z,13.70
2019-04-26T02:34:32.888Z,13.70
2019-04-26T02:35:07.987Z,13.70
2019-04-26T02:35:43.159Z,13.70
2019-04-26T02:36:18.297Z,13.70
2019-04-26T02:36:58.372Z,13.70
2019-04-26T02:37:32.771Z,13.70
2019-04-26T02:38:07.990Z,13.70
2019-04-26T02:38:43.179Z,13.70
2019-04-26T02:39:19.567Z,13.70
2019-04-26T02:39:54.688Z,13.70
2019-04-26T02:40:31.166Z,13.70
2019-04-26T02:41:06.704Z,13.60
2019-04-26T02:41:41.816Z,13.70
2019-04-26T02:42:28.096Z,13.60
2019-04-26T02:43:04.030Z,13.70
2019-04-26T02:43:39.144Z,13.60
2019-04-26T02:44:14.283Z,13.60
2019-04-26T02:45:02.971Z,13.60
2019-04-26T02:45:49.447Z,13.60
2019-04-26T02:46:34.404Z,13.60
2019-04-26T02:47:34.563Z,13.60
2019-04-26T02:48:23.598Z,13.50
2019-04-26T02:49:25.232Z,13.50
2019-04-26T02:50:03.418Z,13.40
2019-04-26T02:50:43.235Z,13.40
2019-04-26T02:51:22.328Z,13.40
2019-04-26T02:52:21.601Z,13.40
2019-04-26T02:53:13.239Z,13.40
2019-04-26T02:53:59.724Z,13.40
2019-04-26T02:54:47.775Z,13.40
2019-04-26T02:55:49.913Z,13.40
2019-04-26T02:56:37.673Z,13.40
2019-04-26T02:57:14.739Z,13.40
2019-04-26T02:57:51.908Z,13.40
2019-04-26T02:58:31.932Z,13.40
2019-04-26T02:59:44.748Z,13.40
2019-04-26T03:00:21.030Z,13.40
2019-04-26T03:00:56.311Z,13.50
2019-04-26T03:01:33.961Z,13.50
2019-04-26T03:02:16.324Z,13.50
2019-04-26T03:03:09.520Z,13.50
2019-04-26T03:03:44.645Z,13.50
2019-04-26T03:04:19.763Z,13.40
2019-04-26T03:04:58.408Z,13.40
2019-04-26T03:05:35.538Z,13.50
2019-04-26T03:06:10.570Z,13.50
2019-04-26T03:07:01.767Z,13.40
2019-04-26T03:07:44.287Z,13.40
2019-04-26T03:08:20.856Z,13.40
2019-04-26T03:08:56.230Z,13.50
2019-04-26T03:09:33.719Z,13.40
2019-04-26T03:10:09.652Z,13.50
2019-04-26T03:10:54.158Z,13.50
2019-04-26T03:11:33.917Z,13.50
2019-04-26T03:12:12.087Z,13.40
2019-04-26T03:12:47.228Z,13.40
2019-04-26T03:13:32.030Z,13.40
2019-04-26T03:14:25.681Z,13.40
2019-04-26T03:15:19.950Z,13.40
2019-04-26T03:16:02.411Z,13.40
2019-04-26T03:17:11.523Z,13.40
2019-04-26T03:17:56.068Z,13.40
2019-04-26T03:18:50.148Z,13.40
2019-04-26T03:19:43.810Z,13.40
2019-04-26T03:20:22.903Z,13.40
2019-04-26T03:21:01.272Z,13.30
2019-04-26T03:22:04.726Z,13.30
2019-04-26T03:22:58.593Z,13.30
2019-04-26T03:23:56.986Z,13.30
2019-04-26T03:24:25.904Z,13.30
2019-04-26T03:25:10.336Z,13.30
2019-04-26T03:26:12.605Z,13.30
2019-04-26T03:27:43.439Z,13.30
2019-04-26T03:28:47.684Z,13.30
2019-04-26T03:30:18.418Z,13.20
2019-04-26T03:30:52.456Z,13.10
2019-04-26T03:31:53.969Z,13.10
2019-04-26T03:32:56.386Z,13.10
2019-04-26T03:33:53.315Z,13.10
2019-04-26T03:34:30.161Z,13.10
2019-04-26T03:35:48.845Z,13.10
2019-04-26T03:37:20.132Z,13.10
2019-04-26T03:38:14.342Z,13.10
2019-04-26T03:38:59.275Z,13.10
2019-04-26T03:39:52.411Z,13.20
2019-04-26T03:40:57.224Z,13.20
2019-04-26T03:42:02.330Z,13.20
2019-04-26T03:43:24.314Z,13.10
2019-04-26T03:44:22.239Z,13.20
2019-04-26T03:45:28.123Z,13.10
2019-04-26T03:46:39.758Z,13.20
2019-04-26T03:47:19.108Z,13.10
2019-04-26T03:48:12.007Z,13.10
2019-04-26T03:49:25.464Z,13.10
2019-04-26T03:50:14.266Z,13.20
2019-04-26T03:50:59.562Z,13.10
2019-04-26T03:51:49.961Z,13.10
2019-04-26T03:52:56.646Z,13.10
2019-04-26T03:53:47.159Z,13.10
2019-04-26T03:54:23.597Z,13.10
2019-04-26T03:55:01.621Z,13.10
2019-04-26T03:56:41.816Z,13.10
2019-04-26T03:57:36.917Z,13.10
2019-04-26T03:58:17.128Z,13.10
2019-04-26T03:59:22.797Z,13.10
2019-04-26T04:00:38.768Z,13.10
2019-04-26T04:01:14.421Z,13.10
2019-04-26T04:02:05.861Z,13.10
2019-04-26T04:02:55.813Z,13.10
2019-04-26T04:03:57.688Z,13.10
2019-04-26T04:04:44.805Z,13.10
2019-04-26T04:05:39.653Z,13.10
2019-04-26T04:06:18.397Z,13.10
2019-04-26T04:07:03.811Z,13.10
2019-04-26T04:07:48.094Z,13.00
2019-04-26T04:08:22.826Z,13.00
2019-04-26T04:09:09.277Z,13.00
2019-04-26T04:09:48.994Z,13.00
2019-04-26T04:10:27.888Z,13.00
2019-04-26T04:11:05.121Z,13.00
2019-04-26T04:11:48.905Z,12.90
2019-04-26T04:12:46.288Z,12.90
2019-04-26T04:13:43.585Z,12.90
2019-04-26T04:14:24.575Z,12.90
2019-04-26T04:15:07.476Z,12.90
2019-04-26T04:15:46.749Z,12.90
2019-04-26T04:16:43.528Z,12.90
2019-04-26T04:17:30.397Z,12.90
2019-04-26T04:18:08.214Z,12.90
2019-04-26T04:18:47.658Z,12.90
2019-04-26T04:19:58.034Z,12.90
2019-04-26T04:21:25.839Z,12.90
2019-04-26T04:22:04.162Z,12.90
2019-04-26T04:22:43.948Z,12.90
2019-04-26T04:23:48.770Z,12.90
2019-04-26T04:24:34.068Z,12.90
2019-04-26T04:25:12.197Z,12.90
2019-04-26T04:25:49.237Z,12.90
2019-04-26T04:26:46.837Z,12.90
2019-04-26T04:27:27.609Z,12.90
2019-04-26T04:28:20.138Z,12.90
2019-04-26T04:29:18.285Z,12.90
2019-04-26T04:30:06.505Z,12.90
2019-04-26T04:30:56.192Z,12.80
2019-04-26T04:31:34.492Z,12.80
2019-04-26T04:32:25.438Z,12.80
2019-04-26T04:33:12.868Z,12.80
2019-04-26T04:34:03.424Z,12.70
2019-04-26T04:34:42.092Z,12.70
2019-04-26T04:35:17.455Z,12.70
2019-04-26T04:35:56.116Z,12.70
2019-04-26T04:36:46.232Z,12.60
2019-04-26T04:37:20.399Z,12.60
2019-04-26T04:38:08.676Z,12.60
2019-04-26T04:39:12.519Z,12.60
2019-04-26T04:39:53.335Z,12.60
2019-04-26T04:41:27.573Z,12.50
2019-04-26T04:42:32.321Z,12.50
2019-04-26T04:43:26.093Z,12.50
2019-04-26T04:44:10.161Z,12.50
2019-04-26T04:45:16.761Z,12.50
2019-04-26T04:46:30.483Z,12.50
2019-04-26T04:47:34.384Z,12.50
2019-04-26T04:48:20.659Z,12.50
2019-04-26T04:49:32.761Z,12.50
2019-04-26T04:50:15.944Z,12.50
2019-04-26T04:51:08.594Z,12.50
2019-04-26T04:51:53.606Z,12.50
2019-04-26T04:52:46.487Z,12.50
2019-04-26T04:53:47.868Z,12.50
2019-04-26T04:54:25.413Z,12.50
2019-04-26T04:55:08.221Z,12.50
2019-04-26T04:55:57.728Z,12.50
2019-04-26T04:57:02.351Z,12.50
2019-04-26T04:58:05.476Z,12.50
2019-04-26T04:58:48.140Z,12.50
2019-04-26T04:59:29.544Z,12.50
2019-04-26T05:00:12.413Z,12.50
2019-04-26T05:01:09.820Z,12.50
2019-04-26T05:02:21.549Z,12.50
2019-04-26T05:03:25.461Z,12.50
2019-04-26T05:04:12.415Z,12.50
2019-04-26T05:05:30.732Z,12.50
2019-04-26T05:06:27.224Z,12.50
2019-04-26T05:07:25.909Z,12.50
2019-04-26T05:08:11.039Z,12.50
2019-04-26T05:08:55.277Z,12.50
2019-04-26T05:09:32.377Z,12.50
2019-04-26T05:10:19.050Z,12.50
2019-04-26T05:11:01.114Z,12.50
2019-04-26T05:12:10.044Z,12.50
2019-04-26T05:13:18.319Z,12.50
2019-04-26T05:13:57.296Z,12.60
2019-04-26T05:14:45.255Z,12.60
2019-04-26T05:15:42.482Z,12.50
2019-04-26T05:16:44.996Z,12.50
2019-04-26T05:17:53.703Z,12.50
2019-04-26T05:18:52.754Z,12.50
2019-04-26T05:19:54.886Z,12.40
2019-04-26T05:20:40.796Z,12.40
2019-04-26T05:21:56.638Z,12.30
2019-04-26T05:23:02.878Z,12.30
2019-04-26T05:23:59.584Z,12.30
2019-04-26T05:25:00.800Z,12.20
2019-04-26T05:26:41.116Z,12.20
2019-04-26T05:27:34.420Z,12.20
2019-04-26T05:28:15.469Z,12.20
2019-04-26T05:29:20.999Z,12.20
2019-04-26T05:30:31.367Z,12.20
2019-04-26T05:31:19.249Z,12.20
2019-04-26T05:32:13.676Z,12.20
2019-04-26T05:33:11.086Z,12.20
2019-04-26T05:34:37.383Z,12.20
2019-04-26T05:35:33.238Z,12.20
2019-04-26T05:36:29.303Z,12.10
2019-04-26T05:37:27.462Z,12.10
2019-04-26T05:38:22.579Z,12.10
2019-04-26T05:39:28.761Z,12.10
2019-04-26T05:40:19.532Z,12.10
2019-04-26T05:41:31.646Z,12.10
2019-04-26T05:42:48.424Z,12.10
2019-04-26T05:43:44.283Z,12.10
2019-04-26T05:44:40.176Z,12.20
2019-04-26T05:45:40.683Z,12.20
2019-04-26T05:47:11.055Z,12.20
2019-04-26T05:48:06.135Z,12.20
2019-04-26T05:49:04.372Z,12.20
2019-04-26T05:50:07.792Z,12.20
2019-04-26T05:51:23.235Z,12.20
2019-04-26T05:52:37.528Z,12.20
2019-04-26T05:54:10.126Z,12.20
2019-04-26T05:55:59.447Z,12.20
2019-04-26T05:57:00.757Z,12.20
2019-04-26T05:57:58.822Z,12.10
2019-04-26T05:59:04.618Z,12.10
2019-04-26T06:00:18.000Z,12.10
2019-04-26T06:02:09.471Z,12.10
2019-04-26T06:03:17.104Z,12.10
2019-04-26T06:04:40.364Z,12.10
2019-04-26T06:05:46.903Z,12.10
2019-04-26T06:06:36.032Z,12.20
2019-04-26T06:07:25.229Z,12.20
2019-04-26T06:08:30.650Z,12.20
2019-04-26T06:09:35.217Z,12.30
2019-04-26T06:10:32.047Z,12.30
2019-04-26T06:11:12.607Z,12.30
2019-04-26T06:12:04.478Z,12.30
2019-04-26T06:12:58.708Z,12.30
2019-04-26T06:14:17.172Z,12.30
2019-04-26T06:15:04.956Z,12.30
2019-04-26T06:15:51.415Z,12.30
2019-04-26T06:16:56.942Z,12.20
2019-04-26T06:18:08.769Z,12.30
2019-04-26T06:18:59.686Z,12.30
2019-04-26T06:20:22.726Z,12.20
2019-04-26T06:20:59.772Z,12.30
2019-04-26T06:21:43.322Z,12.30
2019-04-26T06:22:33.587Z,12.30
2019-04-26T06:23:22.714Z,12.30
2019-04-26T06:24:04.403Z,12.30
2019-04-26T06:24:50.248Z,12.40
2019-04-26T06:25:39.368Z,12.40
2019-04-26T06:26:47.261Z,12.40
2019-04-26T06:27:56.280Z,12.40
2019-04-26T06:29:10.093Z,12.50
2019-04-26T06:29:52.577Z,12.40
2019-04-26T06:30:51.109Z,12.50
2019-04-26T06:31:29.209Z,12.50
2019-04-26T06:32:27.009Z,12.50
2019-04-26T06:33:23.051Z,12.50
2019-04-26T06:34:04.001Z,12.50
2019-04-26T06:34:53.709Z,12.50
2019-04-26T06:35:29.173Z,12.50
2019-04-26T06:36:06.858Z,12.50
2019-04-26T06:37:06.641Z,12.50
2019-04-26T06:37:53.879Z,12.50
2019-04-26T06:39:13.820Z,12.50
2019-04-26T06:40:09.801Z,12.40
2019-04-26T06:41:00.548Z,12.50
2019-04-26T06:42:08.413Z,12.50
2019-04-26T06:43:11.969Z,12.50
2019-04-26T06:43:52.053Z,12.50
2019-04-26T06:44:31.055Z,12.50
2019-04-26T06:45:51.919Z,12.50
2019-04-26T06:47:20.624Z,12.50
2019-04-26T06:48:03.950Z,12.50
2019-04-26T06:49:07.971Z,12.60
2019-04-26T06:50:10.061Z,12.60
2019-04-26T06:50:52.039Z,12.60
2019-04-26T06:51:33.015Z,12.60
2019-04-26T06:52:10.905Z,12.60
2019-04-26T06:52:58.103Z,12.60
2019-04-26T06:53:45.885Z,12.60
2019-04-26T06:54:30.603Z,12.60
2019-04-26T06:55:22.186Z,12.60
2019-04-26T06:56:08.763Z,12.60
2019-04-26T06:57:08.844Z,12.60
2019-04-26T06:58:19.156Z,12.60
2019-04-26T06:59:36.134Z,12.50
2019-04-26T07:00:18.680Z,12.50
2019-04-26T07:01:14.075Z,12.50
2019-04-26T07:01:57.971Z,12.50
2019-04-26T07:02:43.478Z,12.50
2019-04-26T07:03:30.023Z,12.50
2019-04-26T07:04:43.489Z,12.50
2019-04-26T07:05:24.182Z,12.50
2019-04-26T07:06:00.455Z,12.50
2019-04-26T07:06:41.758Z,12.50
2019-04-26T07:07:33.376Z,12.50
2019-04-26T07:08:29.269Z,12.50
2019-04-26T07:09:09.639Z,12.50
2019-04-26T07:10:04.960Z,12.40
2019-04-26T07:10:52.162Z,12.40
2019-04-26T07:12:08.178Z,12.40
2019-04-26T07:12:52.590Z,12.40
2019-04-26T07:13:51.349Z,12.50
2019-04-26T07:15:07.878Z,12.50
2019-04-26T07:16:26.458Z,12.50
2019-04-26T07:17:07.878Z,12.60
2019-04-26T07:17:56.287Z,12.60
2019-04-26T07:19:24.119Z,12.60
2019-04-26T07:20:26.225Z,12.60
2019-04-26T07:21:20.344Z,12.60
2019-04-26T07:22:21.143Z,12.60
2019-04-26T07:23:58.773Z,12.60
2019-04-26T07:25:17.892Z,12.60
2019-04-26T07:26:32.267Z,12.60
2019-04-26T07:27:36.475Z,12.60
2019-04-26T07:28:47.258Z,12.60
2019-04-26T07:29:50.837Z,12.60
2019-04-26T07:30:50.283Z,12.60
2019-04-26T07:31:30.511Z,12.60
2019-04-26T07:32:28.503Z,12.60
2019-04-26T07:33:37.250Z,12.60
2019-04-26T07:34:27.881Z,12.60
2019-04-26T07:35:21.635Z,12.60
2019-04-26T07:36:29.094Z,12.70
2019-04-26T07:37:41.308Z,12.70
2019-04-26T07:38:55.927Z,12.70
2019-04-26T07:40:17.683Z,12.80
2019-04-26T07:41:42.889Z,12.80
2019-04-26T07:43:20.543Z,12.80
2019-04-26T07:44:16.224Z,12.80
2019-04-26T07:45:15.597Z,12.80
2019-04-26T07:46:31.399Z,12.80
2019-04-26T07:47:40.547Z,12.80
2019-04-26T07:48:53.350Z,12.80
2019-04-26T07:50:40.302Z,12.80
2019-04-26T07:51:56.370Z,12.90
2019-04-26T07:52:52.121Z,12.90
2019-04-26T07:54:09.015Z,12.90
2019-04-26T07:55:24.955Z,12.90
2019-04-26T07:56:25.844Z,12.80
2019-04-26T07:57:39.726Z,12.80
2019-04-26T07:59:12.875Z,12.80
2019-04-26T08:00:11.084Z,12.80
2019-04-26T08:00:52.503Z,12.80
2019-04-26T08:01:54.031Z,12.80
2019-04-26T08:02:56.369Z,12.80
2019-04-26T08:03:41.212Z,12.80
2019-04-26T08:04:17.791Z,12.80
2019-04-26T08:04:57.843Z,12.80
2019-04-26T08:05:41.116Z,12.80
2019-04-26T08:06:19.914Z,12.80
2019-04-26T08:06:57.175Z,12.80
2019-04-26T08:07:34.455Z,12.80
2019-04-26T08:08:10.830Z,12.80
2019-04-26T08:08:50.447Z,12.80
2019-04-26T08:09:27.501Z,12.90
2019-04-26T08:10:12.980Z,12.80
2019-04-26T08:11:01.810Z,12.80
2019-04-26T08:11:40.941Z,12.80
2019-04-26T08:12:16.084Z,12.90
2019-04-26T08:13:04.446Z,12.80
2019-04-26T08:13:48.624Z,12.80
2019-04-26T08:14:37.094Z,12.90
2019-04-26T08:15:31.419Z,12.90
2019-04-26T08:16:28.708Z,12.80
2019-04-26T08:17:42.211Z,12.80
2019-04-26T08:18:24.464Z,12.90
2019-04-26T08:19:05.320Z,12.90
2019-04-26T08:19:46.333Z,12.90
2019-04-26T08:20:43.102Z,12.90
2019-04-26T08:21:31.847Z,12.90
2019-04-26T08:22:17.901Z,13.00
2019-04-26T08:22:45.791Z,13.00
2019-04-26T08:23:38.468Z,13.00
2019-04-26T08:24:23.533Z,13.00
2019-04-26T08:24:58.707Z,13.00
2019-04-26T08:25:37.173Z,13.00
2019-04-26T08:26:13.646Z,13.00
2019-04-26T08:27:08.218Z,13.10
2019-04-26T08:27:33.669Z,13.10
2019-04-26T08:28:09.993Z,13.10
2019-04-26T08:28:45.296Z,13.10
2019-04-26T08:29:20.505Z,13.20
2019-04-26T08:30:03.402Z,13.20
2019-04-26T08:30:44.850Z,13.20
2019-04-26T08:31:23.127Z,13.30
2019-04-26T08:31:57.918Z,13.20
2019-04-26T08:32:38.938Z,13.30
2019-04-26T08:33:14.732Z,13.30
2019-04-26T08:33:54.799Z,13.30
2019-04-26T08:34:33.595Z,13.40
2019-04-26T08:35:21.352Z,13.40
2019-04-26T08:35:53.499Z,13.40
2019-04-26T08:36:29.359Z,13.40
2019-04-26T08:37:12.727Z,13.40
2019-04-26T08:37:51.442Z,13.40
2019-04-26T08:38:26.542Z,13.40
2019-04-26T08:39:01.623Z,13.40
2019-04-26T08:39:45.088Z,13.40
2019-04-26T08:40:23.041Z,13.40
2019-04-26T08:40:52.255Z,13.40
2019-04-26T08:41:27.303Z,13.50
2019-04-26T08:42:04.167Z,13.50
2019-04-26T08:42:48.323Z,13.40
2019-04-26T08:43:32.789Z,13.50
2019-04-26T08:44:29.411Z,13.50
2019-04-26T08:45:25.673Z,13.50
2019-04-26T08:46:13.000Z,13.50
2019-04-26T08:47:14.200Z,13.50
2019-04-26T08:48:04.866Z,13.50
2019-04-26T08:48:48.063Z,13.40
2019-04-26T08:49:29.740Z,13.40
2019-04-26T08:50:12.242Z,13.40
2019-04-26T08:50:48.485Z,13.30
2019-04-26T08:51:23.593Z,13.30
2019-04-26T08:51:58.927Z,13.30
2019-04-26T08:52:34.873Z,13.30
2019-04-26T08:53:10.208Z,13.30
2019-04-26T08:53:45.280Z,13.30
2019-04-26T08:54:27.069Z,13.30
2019-04-26T08:55:02.144Z,13.30
2019-04-26T08:55:38.875Z,13.30
2019-04-26T08:56:15.559Z,13.30
2019-04-26T08:56:59.207Z,13.30
2019-04-26T08:57:35.497Z,13.30
2019-04-26T08:58:11.024Z,13.30
2019-04-26T08:58:47.391Z,13.40
2019-04-26T08:59:26.445Z,13.40
2019-04-26T09:00:01.751Z,13.40
2019-04-26T09:00:55.328Z,13.40
2019-04-26T09:01:36.021Z,13.40
2019-04-26T09:02:40.641Z,13.50
2019-04-26T09:03:32.533Z,13.50
2019-04-26T09:04:14.203Z,13.50
2019-04-26T09:05:10.485Z,13.60
2019-04-26T09:06:22.856Z,13.60
2019-04-26T09:07:03.860Z,13.60
2019-04-26T09:07:45.515Z,13.60
2019-04-26T09:08:20.633Z,13.60
2019-04-26T09:08:55.753Z,13.60
2019-04-26T09:09:32.381Z,13.60
2019-04-26T09:10:11.120Z,13.60
2019-04-26T09:10:45.981Z,13.60
2019-04-26T09:11:26.463Z,13.60
2019-04-26T09:12:00.096Z,13.60
2019-04-26T09:12:35.787Z,13.60
2019-04-26T09:13:11.095Z,13.60
2019-04-26T09:13:49.876Z,13.60
2019-04-26T09:14:25.070Z,13.60
2019-04-26T09:15:05.857Z,13.60
2019-04-26T09:16:06.231Z,13.70
2019-04-26T09:16:50.098Z,13.70
2019-04-26T09:17:18.224Z,13.70
2019-04-26T09:17:53.305Z,13.70
2019-04-26T09:18:28.351Z,13.70
2019-04-26T09:19:03.419Z,13.70
2019-04-26T09:19:38.499Z,13.70
2019-04-26T09:20:13.592Z,13.70
2019-04-26T09:20:48.744Z,13.70
2019-04-26T09:21:38.603Z,13.70
2019-04-26T09:22:33.973Z,13.60
2019-04-26T09:23:24.968Z,13.60
2019-04-26T09:24:10.650Z,13.60
2019-04-26T09:24:55.123Z,13.60
2019-04-26T09:25:39.009Z,13.60
2019-04-26T09:26:13.690Z,13.60
2019-04-26T09:26:58.476Z,13.60
2019-04-26T09:27:50.253Z,13.60
2019-04-26T09:28:40.158Z,13.60
2019-04-26T09:29:32.113Z,13.70
2019-04-26T09:30:18.949Z,13.70
2019-04-26T09:31:08.442Z,13.70
2019-04-26T09:31:46.216Z,13.70
2019-04-26T09:32:43.449Z,13.60
2019-04-26T09:33:23.708Z,13.60
2019-04-26T09:34:02.214Z,13.60
2019-04-26T09:34:41.309Z,13.60
2019-04-26T09:35:15.256Z,13.60
2019-04-26T09:35:50.901Z,13.60
2019-04-26T09:36:25.959Z,13.60
2019-04-26T09:37:01.043Z,13.60
2019-04-26T09:37:36.107Z,13.60
2019-04-26T09:38:11.988Z,13.60
2019-04-26T09:38:47.063Z,13.60
2019-04-26T09:39:23.867Z,13.70
2019-04-26T09:40:09.635Z,13.70
2019-04-26T09:40:35.704Z,13.70
2019-04-26T09:41:10.790Z,13.70
2019-04-26T09:41:45.864Z,13.70
2019-04-26T09:42:28.582Z,13.70
2019-04-26T09:43:16.743Z,13.70
2019-04-26T09:43:58.872Z,13.80
2019-04-26T09:44:56.809Z,13.80
2019-04-26T09:45:41.268Z,13.90
2019-04-26T09:46:28.279Z,13.90
2019-04-26T09:47:24.133Z,13.90
2019-04-26T09:48:21.390Z,14.00
2019-04-26T09:49:03.026Z,14.00
2019-04-26T09:49:51.472Z,14.00
2019-04-26T09:50:42.768Z,14.00
2019-04-26T09:51:17.883Z,14.00
2019-04-26T09:51:52.955Z,14.00
2019-04-26T09:52:30.568Z,14.00
2019-04-26T09:53:05.772Z,14.00
2019-04-26T09:53:43.488Z,14.00
2019-04-26T09:54:17.657Z,14.00
2019-04-26T09:54:53.999Z,14.00
2019-04-26T09:55:35.703Z,14.00
2019-04-26T09:56:06.318Z,14.00
2019-04-26T09:56:41.418Z,14.00
2019-04-26T09:57:16.491Z,14.00
2019-04-26T09:57:53.497Z,14.00
2019-04-26T09:58:30.853Z,14.00
2019-04-26T09:59:06.844Z,14.00
2019-04-26T09:59:42.185Z,14.00
2019-04-26T10:00:24.222Z,14.00